Time;durP1;ratioP1;P1;durP2;ratioP2;P2;SDS_P1;SDS_P2;PMS_P1;PMS_P2;Temp;Humidity;BMP_temperature;BMP_pressure;BME280_temperature;BME280_humidity;BME280_pressure;Samples;Min_cycle;Max_cycle;Signal;HPM_P1;HPM_P2
2022/10/23 00:01:40;;;;;;;9.98;4.57;;;;;;;13.76;100.00;101286.38;4736064;30;20052;-58
2022/10/23 00:04:12;;;;;;;13.18;4.63;;;;;;;13.78;100.00;101286.94;4751945;30;20060;-56
2022/10/23 00:06:40;;;;;;;15.48;5.28;;;;;;;13.78;100.00;101275.97;4750469;30;20046;-59
2022/10/23 00:09:09;;;;;;;11.55;4.50;;;;;;;13.78;100.00;101275.97;4751940;30;20076;-56
2022/10/23 00:11:37;;;;;;;10.63;4.55;;;;;;;13.77;100.00;101262.53;4750731;30;20050;-57
2022/10/23 00:14:06;;;;;;;10.65;4.60;;;;;;;13.78;100.00;101272.38;4738574;30;20134;-58
2022/10/23 00:16:35;;;;;;;10.98;4.63;;;;;;;13.80;100.00;101276.47;4754143;30;20066;-58
2022/10/23 00:19:03;;;;;;;11.32;5.38;;;;;;;13.81;100.00;101278.13;4750237;30;20076;-57
2022/10/23 00:21:31;;;;;;;12.18;4.90;;;;;;;13.83;100.00;101275.13;4754011;30;20386;-57
2022/10/23 00:23:59;;;;;;;9.73;4.53;;;;;;;13.85;100.00;101278.38;4755111;30;20084;-58
2022/10/23 00:26:27;;;;;;;12.95;4.60;;;;;;;13.84;100.00;101276.75;4754734;30;20416;-59
2022/10/23 00:28:56;;;;;;;15.27;5.22;;;;;;;13.82;100.00;101278.94;4752209;30;20446;-58
2022/10/23 00:31:24;;;;;;;10.13;4.47;;;;;;;13.78;100.00;101267.75;4751414;30;20489;-59
2022/10/23 00:33:52;;;;;;;14.48;4.97;;;;;;;13.74;100.00;101276.81;4746043;30;20476;-60
2022/10/23 00:36:21;;;;;;;13.68;5.05;;;;;;;13.72;100.00;101274.31;4754642;30;20050;-57
2022/10/23 00:38:50;;;;;;;17.35;5.13;;;;;;;13.74;100.00;101279.53;4753530;30;20060;-60
2022/10/23 00:41:21;;;;;;;12.52;4.50;;;;;;;13.76;100.00;101274.59;4765024;30;20058;-58
2022/10/23 00:44:06;;;;;;;11.95;4.38;;;;;;;13.82;100.00;101278.94;4752957;30;20052;-55
2022/10/23 00:46:35;;;;;;;11.48;4.63;;;;;;;13.87;100.00;101278.94;4754275;30;20041;-57
2022/10/23 00:49:04;;;;;;;13.40;4.75;;;;;;;13.87;100.00;101269.91;4753047;30;20055;-55
2022/10/23 00:51:43;;;;;;;9.32;4.13;;;;;;;13.88;100.00;101271.53;4768019;30;20048;-57
2022/10/23 00:54:12;;;;;;;11.02;4.28;;;;;;;13.90;100.00;101270.16;4768105;30;20102;-59
2022/10/23 00:56:53;;;;;;;12.52;4.60;;;;;;;13.90;100.00;101263.84;4754452;30;20044;-59
2022/10/23 00:59:21;;;;;;;13.38;4.72;;;;;;;13.86;100.00;101263.63;4765977;30;20135;-57
2022/10/23 01:01:50;;;;;;;14.68;4.78;;;;;;;13.82;100.00;101268.00;4754186;30;20044;-58
2022/10/23 01:04:18;;;;;;;13.73;4.70;;;;;;;13.78;100.00;101267.75;4753777;30;20052;-56
2022/10/23 01:07:19;;;;;;;12.85;5.00;;;;;;;13.79;100.00;101265.81;4753185;30;20094;-55
2022/10/23 01:10:12;;;;;;;11.90;4.20;;;;;;;13.79;100.00;101274.03;4767437;30;20051;-57
2022/10/23 01:13:01;;;;;;;13.30;4.95;;;;;;;13.80;100.00;101281.97;4752396;30;20044;-59
2022/10/23 01:15:32;;;;;;;12.10;4.70;;;;;;;13.81;100.00;101260.91;4752572;30;20477;-56
2022/10/23 01:18:21;;;;;;;12.85;5.15;;;;;;;13.81;100.00;101252.69;4753050;30;20544;-57
2022/10/23 01:21:11;;;;;;;13.45;4.43;;;;;;;13.80;100.00;101254.56;4725792;30;20097;-58
2022/10/23 01:23:59;;;;;;;13.20;4.93;;;;;;;13.81;100.00;101255.41;4750256;30;20064;-57
2022/10/23 01:26:33;;;;;;;15.23;4.90;;;;;;;13.80;100.00;101251.03;4752526;30;20048;-59
2022/10/23 01:29:15;;;;;;;13.90;4.95;;;;;;;13.80;100.00;101256.50;4743093;30;20131;-58
2022/10/23 01:31:49;;;;;;;11.75;4.93;;;;;;;13.79;100.00;101247.47;4752629;30;20075;-58
2022/10/23 01:34:43;;;;;;;12.52;5.25;;;;;;;13.78;100.00;101245.00;4756780;30;20060;-58
2022/10/23 01:37:13;;;;;;;11.80;5.18;;;;;;;13.71;100.00;101239.00;4708033;30;20055;-56
2022/10/23 01:39:48;;;;;;;10.75;4.95;;;;;;;13.68;100.00;101248.59;4751016;30;20051;-57
2022/10/23 01:42:20;;;;;;;13.50;5.18;;;;;;;13.68;100.00;101256.00;4752589;30;20056;-59
2022/10/23 01:44:57;;;;;;;15.80;4.85;;;;;;;13.69;100.00;101244.78;4752366;30;20131;-58
2022/10/23 01:47:26;;;;;;;;;;;;;;;13.68;100.00;101234.91;4752827;30;20052;-58
2022/10/23 01:50:05;;;;;;;15.23;5.40;;;;;;;13.64;100.00;101240.13;4750889;30;19979;-59
2022/10/23 01:52:33;;;;;;;14.07;4.70;;;;;;;13.59;100.00;101231.94;4739782;30;20053;-59
2022/10/23 01:55:04;;;;;;;14.50;5.18;;;;;;;13.58;100.00;101240.41;4734407;30;20063;-56
2022/10/23 01:57:35;;;;;;;13.45;5.25;;;;;;;13.56;100.00;101232.47;4737907;30;20054;-54
2022/10/23 02:00:12;;;;;;;11.48;4.60;;;;;;;13.54;100.00;101223.72;4767120;30;20049;-56
2022/10/23 02:02:53;;;;;;;13.50;5.22;;;;;;;13.51;100.00;101221.53;4751814;30;20052;-54
2022/10/23 02:05:28;;;;;;;18.10;5.38;;;;;;;13.50;100.00;101208.94;4752431;30;20052;-59
2022/10/23 02:07:57;;;;;;;10.73;4.55;;;;;;;13.50;100.00;101211.69;4752316;30;20067;-59
2022/10/23 02:10:40;;;;;;;9.88;4.75;;;;;;;13.51;100.00;101210.59;4751870;30;20071;-60
2022/10/23 02:13:12;;;;;;;12.35;5.03;;;;;;;13.53;100.00;101213.06;4751978;30;20445;-57
2022/10/23 02:15:47;;;;;;;9.45;4.18;;;;;;;13.52;100.00;101209.50;4750534;30;20044;-56
2022/10/23 02:18:31;;;;;;;13.68;4.60;;;;;;;13.54;100.00;101211.94;4737461;30;20456;-56
2022/10/23 02:21:17;;;;;;;11.52;4.65;;;;;;;13.53;100.00;101210.31;4766553;30;20102;-56
2022/10/23 02:23:51;;;;;;;10.55;4.75;;;;;;;13.52;100.00;101212.25;4753046;30;20063;-59
2022/10/23 02:26:31;;;;;;;15.07;4.90;;;;;;;13.51;100.00;101216.06;4751651;30;20082;-58
2022/10/23 02:29:13;;;;;;;10.73;4.63;;;;;;;13.51;100.00;101207.03;4735844;30;20075;-59
2022/10/23 02:31:44;;;;;;;12.85;4.47;;;;;;;13.49;100.00;101212.78;4737415;30;20076;-57
2022/10/23 02:34:12;;;;;;;19.38;5.13;;;;;;;13.45;100.00;101211.72;4752636;30;20074;-58
2022/10/23 02:36:40;;;;;;;9.43;4.28;;;;;;;13.43;100.00;101211.97;4748356;30;20048;-56
2022/10/23 02:39:09;;;;;;;9.77;4.78;;;;;;;13.43;100.00;101205.69;4756589;30;20052;-58
2022/10/23 02:41:50;;;;;;;12.35;5.03;;;;;;;13.40;100.00;101207.06;4751205;30;20044;-59
2022/10/23 02:44:44;;;;;;;10.98;4.45;;;;;;;13.37;100.00;101195.84;4751840;30;20045;-57
2022/10/23 02:47:15;;;;;;;12.10;4.75;;;;;;;13.36;100.00;101194.22;4748800;30;20397;-57
2022/10/23 02:49:48;;;;;;;17.27;4.70;;;;;;;13.36;100.00;101184.06;4750225;30;20058;-59
2022/10/23 02:52:45;;;;;;;13.35;4.70;;;;;;;13.40;100.00;101178.88;4737246;30;20084;-57
2022/10/23 02:55:18;;;;;;;;;;;;;;;13.41;100.00;101166.81;4761479;30;20055;-59
2022/10/23 02:57:52;;;;;;;17.88;5.00;;;;;;;13.43;100.00;101159.16;4776515;30;20382;-59
2022/10/23 03:00:21;;;;;;;13.88;5.07;;;;;;;13.40;100.00;101149.59;4754172;30;20048;-60
2022/10/23 03:02:59;;;;;;;11.57;4.70;;;;;;;13.38;100.00;101145.50;4766068;30;20500;-58
2022/10/23 03:05:33;;;;;;;11.70;4.63;;;;;;;13.36;100.00;101145.75;4758694;30;20078;-59
2022/10/23 03:08:07;;;;;;;12.00;4.70;;;;;;;13.35;100.00;101132.38;4774442;30;20119;-57
2022/10/23 03:10:36;;;;;;;13.27;4.95;;;;;;;13.32;100.00;101132.91;4754762;30;20109;-57
2022/10/23 03:13:05;;;;;;;13.73;5.20;;;;;;;13.30;100.00;101135.09;4736740;30;20056;-59
2022/10/23 03:15:40;;;;;;;11.85;4.63;;;;;;;13.31;100.00;101131.28;4751192;30;20056;-59
2022/10/23 03:18:11;;;;;;;12.68;4.95;;;;;;;13.33;100.00;101124.44;4749635;30;20435;-56
2022/10/23 03:20:44;;;;;;;11.05;4.85;;;;;;;13.36;100.00;101117.56;4751610;30;20056;-59
2022/10/23 03:23:12;;;;;;;11.35;4.35;;;;;;;13.35;100.00;101113.22;4753456;30;20056;-58
2022/10/23 03:25:40;;;;;;;12.48;4.63;;;;;;;13.35;100.00;101115.94;4754000;30;20056;-59
2022/10/23 03:28:10;;;;;;;13.63;4.75;;;;;;;13.35;100.00;101113.22;4752613;30;20055;-60
2022/10/23 03:30:38;;;;;;;11.50;4.43;;;;;;;13.36;100.00;101112.91;4751255;30;20119;-61
2022/10/23 03:33:06;;;;;;;12.32;4.70;;;;;;;13.38;100.00;101104.44;4765677;30;20074;-59
2022/10/23 03:35:35;;;;;;;9.65;4.00;;;;;;;13.40;100.00;101104.97;4751544;30;20056;-60
2022/10/23 03:38:03;;;;;;;14.27;4.63;;;;;;;13.42;100.00;101100.00;4751262;30;20143;-58
2022/10/23 03:40:31;;;;;;;12.82;4.50;;;;;;;13.45;100.00;101104.94;4750965;30;20060;-58
2022/10/23 03:42:59;;;;;;;14.05;4.45;;;;;;;13.47;100.00;101094.56;4765712;30;20060;-58
2022/10/23 03:45:29;;;;;;;8.20;4.00;;;;;;;13.46;100.00;101084.69;4750397;30;20048;-59
2022/10/23 03:47:57;;;;;;;14.63;4.15;;;;;;;13.45;100.00;101083.06;4752870;30;20527;-58
2022/10/23 03:50:25;;;;;;;10.40;3.78;;;;;;;13.40;100.00;101074.88;4751292;30;20549;-57
2022/10/23 03:52:53;;;;;;;10.63;4.13;;;;;;;13.36;100.00;101080.06;4754594;30;20056;-55
2022/10/23 03:55:21;;;;;;;8.80;3.97;;;;;;;13.36;100.00;101076.53;4755380;30;20500;-60
2022/10/23 03:57:49;;;;;;;14.40;4.20;;;;;;;13.35;100.00;101078.44;4753873;30;20119;-59
2022/10/23 04:00:19;;;;;;;12.65;4.20;;;;;;;13.32;100.00;101081.72;4739545;30;20086;-58
2022/10/23 04:02:47;;;;;;;13.20;4.40;;;;;;;13.31;100.00;101079.28;4752185;30;20052;-58
2022/10/23 04:05:16;;;;;;;8.35;3.75;;;;;;;13.32;100.00;101080.91;4753262;30;20055;-58
2022/10/23 04:07:52;;;;;;;14.93;4.30;;;;;;;13.36;100.00;101077.34;4753365;30;20058;-59
2022/10/23 04:10:20;;;;;;;10.75;4.60;;;;;;;13.39;100.00;101074.03;4753250;30;20450;-55
2022/10/23 04:12:48;;;;;;;9.50;4.00;;;;;;;13.42;100.00;101067.16;4752319;30;20133;-58
2022/10/23 04:15:16;;;;;;;12.70;4.15;;;;;;;13.42;100.00;101062.53;4753181;30;20056;-56
2022/10/23 04:17:46;;;;;;;10.80;4.00;;;;;;;13.43;100.00;101057.88;4738316;30;20053;-59
2022/10/23 04:20:14;;;;;;;14.77;4.40;;;;;;;13.43;100.00;101053.22;4767339;30;20056;-59
2022/10/23 04:22:44;;;;;;;12.80;3.83;;;;;;;13.38;100.00;101042.28;4752096;30;20052;-59
2022/10/23 04:25:12;;;;;;;12.15;4.18;;;;;;;13.35;100.00;101044.78;4754090;30;20056;-57
2022/10/23 04:27:40;;;;;;;9.68;4.30;;;;;;;13.34;100.00;101040.41;4753125;30;20044;-65
2022/10/23 04:30:09;;;;;;;19.20;4.80;;;;;;;13.29;100.00;101043.16;4752662;30;20052;-59
2022/10/23 04:32:38;;;;;;;14.77;5.18;;;;;;;13.22;100.00;101038.78;4752508;30;20056;-59
2022/10/23 04:35:06;;;;;;;14.93;4.40;;;;;;;13.20;100.00;101046.47;4765848;30;20048;-59
2022/10/23 04:37:34;;;;;;;13.68;4.43;;;;;;;13.20;100.00;101043.72;4752981;30;20052;-57
2022/10/23 04:40:02;;;;;;;10.90;4.78;;;;;;;13.19;100.00;101039.34;4766856;30;20106;-58
2022/10/23 04:42:34;;;;;;;15.52;4.22;;;;;;;13.20;100.00;101037.41;4752520;30;20569;-58
2022/10/23 04:45:03;;;;;;;12.88;4.00;;;;;;;13.20;100.00;101038.25;4752911;30;20056;-58
2022/10/23 04:47:32;;;;;;;13.35;4.53;;;;;;;13.24;100.00;101046.72;4752258;30;20052;-55
2022/10/23 04:50:00;;;;;;;13.52;4.25;;;;;;;13.27;100.00;101037.13;4753822;30;20105;-59
2022/10/23 04:52:46;;;;;;;9.45;4.07;;;;;;;13.30;100.00;101031.09;4754594;30;20051;-57
2022/10/23 04:55:48;;;;;;;9.70;3.75;;;;;;;13.31;100.00;101033.56;4751791;30;20083;-55
2022/10/23 04:58:23;;;;;;;11.13;4.22;;;;;;;13.33;100.00;101036.03;4757158;30;20075;-60
2022/10/23 05:00:52;;;;;;;11.80;3.95;;;;;;;13.32;100.00;101035.19;4738392;30;20048;-55
2022/10/23 05:03:24;;;;;;;10.63;4.22;;;;;;;13.34;100.00;101032.19;4752880;30;20063;-55
2022/10/23 05:05:54;;;;;;;9.80;4.22;;;;;;;13.35;100.00;101029.19;4752833;30;20048;-58
2022/10/23 05:08:42;;;;;;;11.43;4.03;;;;;;;13.37;100.00;101028.88;4742669;30;20068;-59
2022/10/23 05:11:15;;;;;;;10.93;3.97;;;;;;;13.38;100.00;101019.59;4754007;30;20413;-59
2022/10/23 05:13:46;;;;;;;9.73;4.13;;;;;;;13.37;100.00;101021.50;4751423;30;20060;-57
2022/10/23 05:16:36;;;;;;;13.82;4.57;;;;;;;13.39;100.00;101019.28;4767531;30;20055;-59
2022/10/23 05:19:05;;;;;;;12.30;4.38;;;;;;;13.41;100.00;101022.56;4752873;30;20090;-57
2022/10/23 05:21:34;;;;;;;11.77;4.28;;;;;;;13.41;100.00;101017.09;4754078;30;20110;-57
2022/10/23 05:24:05;;;;;;;10.95;4.60;;;;;;;13.40;100.00;101009.19;4738397;30;20063;-59
2022/10/23 05:26:34;;;;;;;12.82;4.55;;;;;;;13.38;100.00;101011.38;4766657;30;20524;-57
2022/10/23 05:29:06;;;;;;;13.98;4.30;;;;;;;13.37;100.00;101010.56;4752685;30;20501;-57
2022/10/23 05:31:35;;;;;;;16.08;4.75;;;;;;;13.38;100.00;101016.84;4752354;30;20065;-56
2022/10/23 05:34:13;;;;;;;12.98;4.82;;;;;;;13.39;100.00;101007.53;4738615;30;20500;-55
2022/10/23 05:36:44;;;;;;;14.80;4.20;;;;;;;13.40;100.00;101009.19;4752072;30;20123;-57
2022/10/23 05:39:13;;;;;;;10.05;3.95;;;;;;;13.41;100.00;101005.34;4737597;30;20139;-59
2022/10/23 05:41:43;;;;;;;10.88;4.38;;;;;;;13.41;100.00;101002.59;4752233;30;20044;-59
2022/10/23 05:44:11;;;;;;;13.93;4.60;;;;;;;13.38;100.00;100994.97;4752560;30;20048;-58
2022/10/23 05:46:57;;;;;;;11.45;3.80;;;;;;;13.39;100.00;101000.13;4753669;30;20170;-57
2022/10/23 05:49:45;;;;;;;9.82;3.75;;;;;;;13.42;100.00;100998.75;4749781;30;20072;-57
2022/10/23 05:52:31;;;;;;;10.82;3.80;;;;;;;13.42;100.00;100996.84;4754179;30;20127;-57
2022/10/23 05:55:11;;;;;;;14.93;4.30;;;;;;;13.42;100.00;100990.53;4750208;30;20048;-56
2022/10/23 05:57:50;;;;;;;14.18;4.50;;;;;;;13.43;100.00;100990.25;4751279;30;20044;-55
2022/10/23 06:00:27;;;;;;;11.25;3.85;;;;;;;13.45;100.00;100989.19;4748778;30;20048;-55
2022/10/23 06:03:13;;;;;;;10.52;3.92;;;;;;;13.43;100.00;100984.78;4752452;30;20105;-54
2022/10/23 06:05:51;;;;;;;11.88;4.03;;;;;;;13.42;100.00;100979.59;4761628;30;20512;-55
2022/10/23 06:08:27;;;;;;;13.20;4.32;;;;;;;13.41;100.00;100972.50;4744388;30;20051;-58
2022/10/23 06:10:55;;;;;;;9.68;4.13;;;;;;;13.40;100.00;100982.63;4750424;30;20407;-55
2022/10/23 06:13:23;;;;;;;9.73;4.40;;;;;;;13.39;100.00;100971.94;4751464;30;20047;-56
2022/10/23 06:15:51;;;;;;;10.20;4.32;;;;;;;13.40;100.00;100973.59;4766325;30;20052;-59
2022/10/23 06:18:21;;;;;;;13.98;4.65;;;;;;;13.40;100.00;100976.34;4751828;30;20119;-58
2022/10/23 06:21:01;;;;;;;11.20;4.38;;;;;;;13.40;100.00;100970.88;4763510;30;20162;-57
2022/10/23 06:23:33;;;;;;;12.68;4.40;;;;;;;13.40;100.00;100959.91;4748370;30;20122;-54
2022/10/23 06:26:19;;;;;;;11.75;4.70;;;;;;;13.39;100.00;100953.59;4755656;30;20141;-56
2022/10/23 06:28:56;;;;;;;12.02;4.20;;;;;;;13.39;100.00;100961.81;4751219;30;20048;-56
2022/10/23 06:31:26;;;;;;;10.80;4.20;;;;;;;13.40;100.00;100954.44;4751049;30;20560;-59
2022/10/23 06:33:57;;;;;;;8.07;4.00;;;;;;;13.41;100.00;100961.53;4714252;30;20057;-57
2022/10/23 06:36:26;;;;;;;10.05;4.07;;;;;;;13.43;100.00;100964.81;4750787;30;20048;-57
2022/10/23 06:39:01;;;;;;;9.85;3.90;;;;;;;13.44;100.00;100966.44;4718647;30;20531;-58
2022/10/23 06:41:48;;;;;;;10.40;3.67;;;;;;;13.45;100.00;100962.63;4742457;30;20097;-63
2022/10/23 06:44:36;;;;;;;12.68;4.53;;;;;;;13.45;100.00;100956.34;4745161;30;20049;-56
2022/10/23 06:47:09;;;;;;;9.85;4.35;;;;;;;13.43;100.00;100949.19;4763566;30;20127;-59
2022/10/23 06:49:57;;;;;;;10.13;4.00;;;;;;;13.43;100.00;100954.69;4750910;30;20556;-57
2022/10/23 06:52:25;;;;;;;11.55;4.15;;;;;;;13.41;100.00;100943.19;4750688;30;20054;-52
2022/10/23 06:55:15;;;;;;;12.13;4.30;;;;;;;13.40;100.00;100938.84;4735743;30;20060;-56
2022/10/23 06:57:43;;;;;;;10.43;3.72;;;;;;;13.43;100.00;100937.44;4752976;30;20056;-58
2022/10/23 07:00:12;;;;;;;9.63;3.97;;;;;;;13.43;100.00;100932.78;4759638;30;20052;-57
2022/10/23 07:02:49;;;;;;;11.13;4.10;;;;;;;13.44;100.00;100933.59;4750070;30;20104;-58
2022/10/23 07:05:18;;;;;;;9.88;4.10;;;;;;;13.45;100.00;100935.25;4765265;30;20060;-54
2022/10/23 07:07:46;;;;;;;10.52;4.05;;;;;;;13.42;100.00;100936.63;4096138;30;10000180;-57
2022/10/23 07:10:19;;;;;;;7.40;3.60;;;;;;;13.40;100.00;100933.34;4744845;30;20076;-58
2022/10/23 07:12:53;;;;;;;8.80;3.70;;;;;;;13.43;100.00;100934.72;4772808;30;20500;-56
2022/10/23 07:15:34;;;;;;;13.90;4.78;;;;;;;13.45;100.00;100939.91;4735491;30;20106;-59
2022/10/23 07:18:04;;;;;;;12.27;4.25;;;;;;;13.47;100.00;100944.00;4733015;30;20056;-58
2022/10/23 07:20:58;;;;;;;11.13;4.18;;;;;;;13.50;100.00;100948.09;4737533;30;20167;-58
2022/10/23 07:23:26;;;;;;;10.07;4.00;;;;;;;13.52;100.00;100935.75;4734608;30;20056;-59
2022/10/23 07:25:54;;;;;;;10.35;4.38;;;;;;;13.55;100.00;100934.34;4755057;30;20059;-56
2022/10/23 07:28:23;;;;;;;10.23;3.70;;;;;;;13.56;100.00;100933.25;4756314;30;20130;-59
2022/10/23 07:30:58;;;;;;;10.52;3.75;;;;;;;13.56;100.00;100931.31;4771389;30;20068;-56
2022/10/23 07:33:42;;;;;;;14.45;4.20;;;;;;;13.55;100.00;100926.94;4750168;30;20116;-56
2022/10/23 07:36:16;;;;;;;12.10;4.20;;;;;;;13.56;100.00;100919.56;4764744;30;20074;-56
2022/10/23 07:38:45;;;;;;;19.27;4.18;;;;;;;13.57;100.00;100919.28;4732995;30;20111;-56
2022/10/23 07:41:14;;;;;;;9.15;3.65;;;;;;;13.57;100.00;100916.53;4756225;30;20172;-59
2022/10/23 07:43:41;;;;;;;10.73;3.97;;;;;;;13.59;100.00;100908.88;4759145;30;20056;-59
2022/10/23 07:46:09;;;;;;;11.82;4.07;;;;;;;13.59;100.00;100911.59;4746106;30;20550;-57
2022/10/23 07:48:39;;;;;;;10.80;3.97;;;;;;;13.59;100.00;100906.13;4759692;30;20052;-56
2022/10/23 07:51:13;;;;;;;12.57;4.70;;;;;;;13.60;100.00;100905.00;4758729;30;20041;-54
2022/10/23 07:53:44;;;;;;;10.98;4.07;;;;;;;13.63;100.00;100903.63;4741472;30;20119;-52
2022/10/23 07:56:38;;;;;;;15.10;4.47;;;;;;;13.64;100.00;100903.34;4731554;30;20504;-55
2022/10/23 07:59:26;;;;;;;10.32;3.92;;;;;;;13.64;100.00;100899.78;4755725;30;20610;-56
2022/10/23 08:01:55;;;;;;;10.80;4.05;;;;;;;13.64;100.00;100895.13;4754804;30;20059;-56
2022/10/23 08:04:36;;;;;;;11.68;3.80;;;;;;;13.67;100.00;100901.13;4754710;30;20083;-54
2022/10/23 08:07:14;;;;;;;10.23;3.60;;;;;;;13.68;100.00;100900.03;4754726;30;20067;-57
2022/10/23 08:09:45;;;;;;;13.57;4.35;;;;;;;13.69;100.00;100897.00;4754366;30;20054;-57
2022/10/23 08:12:12;;;;;;;9.50;3.67;;;;;;;13.71;100.00;100899.44;4754993;30;20044;-58
2022/10/23 08:14:40;;;;;;;10.30;4.00;;;;;;;13.73;100.00;100886.28;4754051;30;20066;-56
2022/10/23 08:17:08;;;;;;;11.23;4.07;;;;;;;13.74;100.00;100891.47;4754311;30;20079;-57
2022/10/23 08:20:06;;;;;;;8.23;3.65;;;;;;;13.77;100.00;100887.34;4744855;30;20055;-56
2022/10/23 08:22:39;;;;;;;12.48;3.85;;;;;;;13.80;100.00;100892.25;4755881;30;20052;-57
2022/10/23 08:25:08;;;;;;;8.57;3.90;;;;;;;13.81;100.00;100886.50;4755677;30;20135;-57
2022/10/23 08:27:37;;;;;;;11.00;3.83;;;;;;;13.84;100.00;100885.09;4754257;30;20052;-59
2022/10/23 08:30:05;;;;;;;12.68;4.00;;;;;;;13.85;100.00;100883.97;4754372;30;20428;-57
2022/10/23 08:32:33;;;;;;;13.00;3.90;;;;;;;13.88;100.00;100886.16;4753547;30;20086;-57
2022/10/23 08:35:02;;;;;;;15.52;3.80;;;;;;;13.89;100.00;100884.22;4753874;30;20094;-55
2022/10/23 08:37:31;;;;;;;7.90;3.83;;;;;;;13.91;100.00;100880.09;4755532;30;20052;-52
2022/10/23 08:39:59;;;;;;;10.55;3.78;;;;;;;13.94;100.00;100886.91;4755017;30;20055;-54
2022/10/23 08:43:10;;;;;;;12.02;3.60;;;;;;;13.97;100.00;100889.88;4729540;30;20067;-57
2022/10/23 08:46:04;;;;;;;11.18;3.92;;;;;;;13.98;100.00;100882.50;4754075;30;20492;-56
2022/10/23 08:49:08;;;;;;;13.38;3.85;;;;;;;13.99;100.00;100873.97;4754949;30;20044;-57
2022/10/23 08:51:47;;;;;;;8.90;3.67;;;;;;;14.01;100.00;100869.03;4730424;30;20044;-57
2022/10/23 08:54:21;;;;;;;7.40;3.53;;;;;;;14.03;100.00;100866.81;4724249;30;20048;-55
2022/10/23 08:56:53;;;;;;;9.38;3.20;;;;;;;14.03;100.00;100864.06;4753307;30;20044;-57
2022/10/23 08:59:31;;;;;;;11.25;4.15;;;;;;;14.05;100.00;100861.88;4767949;30;20537;-56
2022/10/23 09:02:17;;;;;;;10.55;4.10;;;;;;;14.06;100.00;100863.50;4768116;30;20396;-55
2022/10/23 09:04:48;;;;;;;8.63;3.72;;;;;;;14.09;100.00;100861.28;4768068;30;20075;-58
2022/10/23 09:07:21;;;;;;;8.40;3.58;;;;;;;14.07;100.00;100850.63;4767857;30;20056;-54
2022/10/23 09:10:24;;;;;;;8.70;3.53;;;;;;;14.08;100.00;100849.50;4751341;30;20059;-57
2022/10/23 09:12:51;;;;;;;8.40;3.38;;;;;;;14.10;100.00;100857.44;4738657;30;20062;-55
2022/10/23 09:15:46;;;;;;;9.32;3.85;;;;;;;14.12;100.00;100845.09;4754133;30;20072;-58
2022/10/23 09:18:16;;;;;;;10.32;3.85;;;;;;;14.13;100.00;100841.22;4753292;30;20508;-53
2022/10/23 09:20:45;;;;;;;12.80;4.43;;;;;;;14.13;100.00;100841.22;4752880;30;20078;-56
2022/10/23 09:23:21;;;;;;;13.05;3.65;;;;;;;14.14;100.00;100833.81;4754375;30;20055;-56
2022/10/23 09:25:54;;;;;;;10.48;4.10;;;;;;;14.15;100.00;100811.63;4753571;30;20052;-54
2022/10/23 09:28:30;;;;;;;10.75;3.67;;;;;;;14.16;100.00;100821.47;4753390;30;20059;-55
2022/10/23 09:31:09;;;;;;;11.40;3.80;;;;;;;14.17;100.00;100811.34;4753074;30;20094;-57
2022/10/23 09:33:37;;;;;;;15.50;4.15;;;;;;;14.19;100.00;100814.56;4753972;30;20052;-56
2022/10/23 09:36:26;;;;;;;7.45;3.60;;;;;;;14.20;100.00;100808.00;4753592;30;20059;-58
2022/10/23 09:38:58;;;;;;;10.65;3.30;;;;;;;14.22;100.00;100806.59;4753482;30;20056;-56
2022/10/23 09:41:39;;;;;;;7.95;3.22;;;;;;;14.23;100.00;100802.72;4755149;30;20059;-54
2022/10/23 09:44:06;;;;;;;7.03;3.50;;;;;;;14.24;100.00;100809.06;4752898;30;20052;-57
2022/10/23 09:47:17;;;;;;;9.00;3.45;;;;;;;14.25;100.00;100810.69;4752963;30;20056;-55
2022/10/23 09:49:50;;;;;;;11.80;4.07;;;;;;;14.26;100.00;100793.94;4752937;30;20040;-57
2022/10/23 09:52:18;;;;;;;8.90;3.70;;;;;;;14.28;100.00;100785.41;4753771;30;20459;-58
2022/10/23 09:54:49;;;;;;;10.82;3.40;;;;;;;14.28;100.00;100782.69;4753625;30;20106;-54
2022/10/23 09:57:29;;;;;;;9.02;3.50;;;;;;;14.30;100.00;100774.16;4753414;30;20059;-58
2022/10/23 10:00:00;;;;;;;10.30;3.88;;;;;;;14.32;100.00;100774.69;4743319;30;20097;-59
2022/10/23 10:02:39;;;;;;;9.25;3.60;;;;;;;14.33;100.00;100774.38;4753687;30;20444;-58
2022/10/23 10:05:30;;;;;;;8.15;3.65;;;;;;;14.36;100.00;100773.81;4753152;30;20135;-58
2022/10/23 10:08:13;;;;;;;10.05;3.72;;;;;;;14.38;100.00;100778.97;4752443;30;20072;-55
2022/10/23 10:10:53;;;;;;;11.43;4.03;;;;;;;14.40;100.00;100771.28;4752659;30;20090;-57
2022/10/23 10:13:32;;;;;;;10.15;4.18;;;;;;;14.42;100.00;100760.84;4753419;30;20058;-57
2022/10/23 10:16:19;;;;;;;8.18;3.83;;;;;;;14.44;100.00;100758.63;4753268;30;20048;-59
2022/10/23 10:18:55;;;;;;;8.90;3.72;;;;;;;14.46;100.00;100750.94;4742423;30;20036;-57
2022/10/23 10:21:44;;;;;;;7.65;3.40;;;;;;;14.48;100.00;100748.72;4753087;30;20044;-54
2022/10/23 10:24:38;;;;;;;6.60;3.38;;;;;;;14.49;100.00;100748.41;4767010;30;20534;-58
2022/10/23 10:27:47;;;;;;;10.32;3.85;;;;;;;14.52;100.00;100721.50;4739404;30;20040;-57
2022/10/23 10:30:23;;;;;;;13.65;3.88;;;;;;;14.55;100.00;100718.19;4727082;30;20056;-56
2022/10/23 10:32:57;;;;;;;7.32;3.63;;;;;;;14.56;100.00;100717.09;4751737;30;20059;-56
2022/10/23 10:35:28;;;;;;;8.48;3.70;;;;;;;14.56;100.00;100711.59;4751565;30;20409;-56
2022/10/23 10:38:33;;;;;;;9.77;3.40;;;;;;;14.57;100.00;100702.25;4753101;30;20056;-55
2022/10/23 10:41:25;;;;;;;10.35;3.17;;;;;;;14.59;100.00;100700.84;4756889;30;20055;-57
2022/10/23 10:44:08;;;;;;;9.30;3.80;;;;;;;14.61;100.00;100704.13;4752872;30;20056;-55
2022/10/23 10:46:47;;;;;;;6.63;3.13;;;;;;;14.62;100.00;100715.88;4753289;30;20481;-58
2022/10/23 10:49:34;;;;;;;11.10;3.65;;;;;;;14.63;100.00;100712.06;4741245;30;20459;-57
2022/10/23 10:52:32;;;;;;;6.18;3.28;;;;;;;14.67;100.00;100704.84;4751735;30;20044;-58
2022/10/23 10:55:17;;;;;;;10.93;3.40;;;;;;;14.68;100.00;100706.47;4752681;30;20048;-59
2022/10/23 10:58:03;;;;;;;9.25;3.00;;;;;;;14.68;100.00;100690.84;4752536;30;20381;-58
2022/10/23 11:00:33;;;;;;;7.78;3.40;;;;;;;14.72;100.00;100704.78;4616387;24;20115;-48
2022/10/23 11:03:15;;;;;;;8.90;3.60;;;;;;;14.75;100.00;100695.94;4716195;30;20053;-45
2022/10/23 11:05:47;;;;;;;9.15;3.40;;;;;;;14.79;100.00;100691.50;4714908;30;20045;-49
2022/10/23 11:08:34;;;;;;;7.25;3.22;;;;;;;14.83;100.00;100672.50;4714217;30;20135;-47
2022/10/23 11:11:35;;;;;;;7.32;3.17;;;;;;;14.89;100.00;100677.59;4714387;30;20114;-50
2022/10/23 11:14:03;;;;;;;8.95;3.83;;;;;;;14.92;100.00;100670.69;4700553;30;20050;-49
2022/10/23 11:16:35;;;;;;;6.68;3.35;;;;;;;14.95;100.00;100669.28;4699051;30;20059;-47
2022/10/23 11:19:24;;;;;;;8.32;3.38;;;;;;;14.98;100.00;100663.19;4698771;30;20509;-51
2022/10/23 11:21:59;;;;;;;10.23;3.72;;;;;;;15.02;100.00;100650.50;4729384;30;20091;-49
2022/10/23 11:24:32;;;;;;;10.13;3.90;;;;;;;15.05;100.00;100650.69;4720343;30;20060;-50
2022/10/23 11:27:06;;;;;;;7.45;3.67;;;;;;;15.07;100.00;100642.97;4716161;30;20049;-48
2022/10/23 11:29:56;;;;;;;8.52;3.50;;;;;;;15.10;100.00;100636.91;4701677;30;20107;-46
2022/10/23 11:32:42;;;;;;;8.52;3.42;;;;;;;15.12;100.00;100633.84;4724112;30;20120;-49
2022/10/23 11:35:34;;;;;;;9.15;3.50;;;;;;;15.14;100.00;100628.88;4716469;30;20557;-44
2022/10/23 11:38:16;;;;;;;11.35;3.70;;;;;;;15.17;100.00;100628.25;4716128;30;20119;-49
2022/10/23 11:40:52;;;;;;;8.20;3.42;;;;;;;15.23;100.00;100648.19;4716779;30;20049;-48
2022/10/23 11:43:32;;;;;;;7.15;3.38;;;;;;;15.26;100.00;100637.41;4712818;30;20048;-49
2022/10/23 11:46:24;;;;;;;7.88;3.22;;;;;;;15.32;100.00;100621.66;4720134;30;20052;-50
2022/10/23 11:48:53;;;;;;;9.02;3.67;;;;;;;15.37;100.00;100620.72;4702677;30;20092;-49
2022/10/23 11:51:32;;;;;;;9.00;3.60;;;;;;;15.39;100.00;100618.50;4706232;30;20208;-49